createdAt,value
2024-01-22T00:12:42.940Z,77.77
2024-01-22T00:27:43.356Z,77.79
2024-01-22T00:42:43.847Z,78.06
2024-01-22T00:57:44.292Z,77.67
2024-01-22T01:12:44.621Z,76.73
2024-01-22T01:27:45.378Z,76.82
2024-01-22T01:42:45.766Z,77.53
2024-01-22T01:57:50.877Z,77.60
2024-01-22T02:12:47.915Z,77.77
2024-01-22T02:27:47.106Z,76.91
2024-01-22T02:42:47.868Z,78.40
2024-01-22T02:57:48.477Z,77.31
2024-01-22T03:12:50.193Z,78.44
2024-01-22T03:27:49.638Z,78.12
2024-01-22T03:42:50.444Z,77.75
2024-01-22T03:57:51.251Z,78.26
2024-01-22T04:12:51.856Z,78.47
2024-01-22T04:27:52.165Z,79.07
2024-01-22T04:42:52.499Z,79.27
2024-01-22T04:57:53.235Z,79.28
2024-01-22T05:12:54.164Z,78.50
2024-01-22T05:27:54.454Z,78.06
2024-01-22T05:42:55.325Z,77.18
2024-01-22T05:57:55.587Z,77.86
2024-01-22T06:12:58.685Z,77.12
2024-01-22T06:27:57.495Z,77.32
2024-01-22T06:42:58.248Z,77.19
2024-01-22T06:57:58.975Z,76.93
2024-01-22T07:12:59.614Z,76.62
2024-01-22T07:28:00.326Z,76.59
2024-01-22T07:43:01.041Z,76.47
2024-01-22T07:58:01.802Z,74.08
2024-01-22T08:13:02.409Z,73.27
2024-01-22T08:28:03.374Z,74.03
2024-01-22T08:43:03.784Z,69.07
2024-01-22T08:58:04.220Z,70.02
2024-01-22T09:13:04.800Z,70.35
2024-01-22T09:28:05.419Z,69.44
2024-01-22T09:43:06.003Z,67.30
2024-01-22T09:58:06.746Z,66.90
2024-01-22T10:13:07.265Z,63.35
2024-01-22T10:28:07.923Z,62.51
2024-01-22T10:43:08.431Z,64.64
2024-01-22T10:58:09.162Z,64.01
2024-01-22T11:13:09.629Z,62.92
2024-01-22T11:28:10.333Z,64.41
2024-01-22T11:43:10.556Z,64.21
2024-01-22T11:58:11.342Z,64.11
2024-01-22T12:13:11.676Z,62.70
2024-01-22T12:28:12.940Z,63.52
2024-01-22T12:43:12.877Z,62.26
2024-01-22T12:58:13.602Z,61.93
2024-01-22T13:13:14.018Z,58.19
2024-01-22T13:28:14.607Z,55.48
2024-01-22T13:43:15.004Z,53.48
2024-01-22T13:58:15.351Z,53.62
2024-01-22T14:13:15.867Z,54.65
2024-01-22T14:28:16.167Z,56.45
2024-01-22T14:43:16.554Z,57.71
2024-01-22T14:58:17.630Z,59.78
2024-01-22T15:13:18.275Z,62.91
2024-01-22T15:28:19.111Z,67.95
2024-01-22T15:43:19.559Z,74.64
2024-01-22T15:58:19.981Z,78.39
2024-01-22T16:13:20.635Z,80.49
2024-01-22T16:28:21.220Z,80.56
2024-01-22T16:43:21.666Z,81.74
2024-01-22T16:58:22.120Z,82.52
2024-01-22T17:13:22.590Z,83.16
2024-01-22T17:28:22.991Z,83.22
2024-01-22T17:43:23.487Z,83.84
2024-01-22T17:58:24.032Z,84.14
2024-01-22T18:13:24.715Z,84.51
2024-01-22T18:28:25.456Z,84.33
2024-01-22T18:43:26.267Z,84.61
2024-01-22T18:58:26.739Z,84.66
2024-01-22T19:13:27.512Z,84.57
2024-01-22T19:28:28.209Z,84.63
2024-01-22T19:43:28.987Z,84.30
2024-01-22T19:58:29.843Z,84.13
2024-01-22T20:13:30.075Z,84.23
2024-01-22T20:28:30.932Z,83.95
2024-01-22T20:43:31.682Z,84.18
2024-01-22T20:58:32.546Z,83.64
2024-01-22T21:13:32.976Z,84.02
2024-01-22T21:28:33.202Z,83.66
2024-01-22T21:43:34.020Z,83.67
2024-01-22T21:58:34.828Z,83.81
2024-01-22T22:13:35.221Z,83.96
2024-01-22T22:28:36.170Z,83.11
2024-01-22T22:43:36.394Z,83.48
2024-01-22T22:58:37.235Z,82.89
2024-01-22T23:13:38.045Z,83.20
2024-01-22T23:28:38.844Z,82.94
2024-01-22T23:43:39.687Z,82.71
2024-01-22T23:58:40.082Z,82.81
